createdAt,value
2023-03-23T15:58:30.690Z,10.57
2023-03-23T16:00:59.720Z,14.47
2023-03-23T16:03:30.492Z,8.57
2023-03-23T16:05:59.969Z,34.27
2023-03-23T16:08:28.281Z,30.50
2023-03-23T16:10:56.663Z,14.83
2023-03-23T16:13:24.902Z,7.87
2023-03-23T16:16:09.535Z,4.93
2023-03-23T16:18:37.831Z,4.60
2023-03-23T16:21:06.601Z,4.83
2023-03-23T16:23:34.874Z,5.53
2023-03-23T16:26:03.123Z,18.07
2023-03-23T16:28:31.444Z,13.43
2023-03-23T16:31:01.170Z,5.20
2023-03-23T16:33:29.691Z,8.37
2023-03-23T16:35:58.604Z,12.27
2023-03-23T16:38:26.983Z,8.93
2023-03-23T16:40:55.877Z,5.67
2023-03-23T16:43:24.154Z,9.73
2023-03-23T16:45:52.424Z,29.33
2023-03-23T16:48:22.220Z,22.50
2023-03-23T16:50:50.566Z,22.27
2023-03-23T16:53:19.454Z,8.83
2023-03-23T16:55:48.588Z,9.47
2023-03-23T16:58:17.998Z,15.83
2023-03-23T17:00:48.112Z,10.00
2023-03-23T17:03:16.964Z,8.57
2023-03-23T17:05:47.060Z,14.00
2023-03-23T17:08:15.574Z,14.27
2023-03-23T17:10:44.491Z,8.73
2023-03-23T17:13:12.898Z,13.50
2023-03-23T17:15:43.814Z,10.37
2023-03-23T17:18:14.279Z,7.63
2023-03-23T17:20:42.962Z,7.67
2023-03-23T17:23:12.709Z,11.63
2023-03-23T17:25:41.176Z,10.97
2023-03-23T17:28:09.475Z,10.90
2023-03-23T17:30:37.739Z,10.63
2023-03-23T17:33:06.000Z,11.37
2023-03-23T17:35:34.363Z,11.93
2023-03-23T17:38:02.656Z,11.10
2023-03-23T17:40:32.367Z,9.53
2023-03-23T17:43:00.701Z,10.87
2023-03-23T17:45:29.153Z,12.40
2023-03-23T17:47:57.431Z,12.43
2023-03-23T17:50:25.770Z,14.03
2023-03-23T17:52:54.074Z,12.57
2023-03-23T17:55:22.316Z,12.63
2023-03-23T17:57:52.020Z,13.40
2023-03-23T18:00:21.495Z,13.40
2023-03-23T18:02:49.862Z,14.60
2023-03-23T18:05:18.347Z,15.63
2023-03-23T18:07:46.668Z,14.63
2023-03-23T18:10:15.126Z,16.47
2023-03-23T18:12:43.412Z,17.67
2023-03-23T18:15:13.327Z,13.17
2023-03-23T18:17:42.394Z,16.83
2023-03-23T18:20:10.915Z,14.77
2023-03-23T18:22:39.268Z,24.63
2023-03-23T18:25:07.781Z,14.00
2023-03-23T18:27:36.172Z,12.73
2023-03-23T18:30:04.697Z,16.40
2023-03-23T18:32:36.151Z,16.20
2023-03-23T18:35:04.904Z,19.00
2023-03-23T18:37:33.214Z,22.37
2023-03-23T18:40:01.466Z,25.33
2023-03-23T18:42:29.736Z,28.00
2023-03-23T18:44:59.957Z,27.93
2023-03-23T18:47:28.329Z,27.60
2023-03-23T18:49:59.629Z,26.37
2023-03-23T18:52:30.834Z,25.93
2023-03-23T18:54:59.139Z,26.80
2023-03-23T18:57:27.518Z,28.60
2023-03-23T18:59:55.786Z,27.97
2023-03-23T19:02:24.159Z,37.28
2023-03-23T19:04:52.555Z,32.97
2023-03-23T19:07:22.256Z,30.07
2023-03-23T19:09:50.574Z,33.17
2023-03-23T19:12:18.900Z,32.53
2023-03-23T19:14:47.175Z,34.47
2023-03-23T19:17:15.609Z,29.90
2023-03-23T19:19:44.834Z,33.00
2023-03-23T19:22:13.194Z,30.17
2023-03-23T19:24:42.951Z,35.83
2023-03-23T19:27:11.286Z,31.50
2023-03-23T19:29:39.836Z,29.17
2023-03-23T19:32:09.485Z,29.40
2023-03-23T19:34:39.419Z,26.83
2023-03-23T19:37:11.108Z,26.53
2023-03-23T19:39:41.814Z,22.10
2023-03-23T19:42:17.011Z,22.90
2023-03-23T19:44:45.498Z,25.00
2023-03-23T19:47:13.931Z,22.77
2023-03-23T19:49:42.488Z,22.67
2023-03-23T19:52:12.828Z,26.80
2023-03-23T19:54:42.449Z,24.10
2023-03-23T19:57:12.498Z,26.53
2023-03-23T19:59:40.997Z,25.13
2023-03-23T20:02:11.713Z,22.17
2023-03-23T20:04:40.141Z,27.10
2023-03-23T20:07:08.780Z,25.67
2023-03-23T20:09:38.263Z,22.63
2023-03-23T20:12:07.367Z,23.40
2023-03-23T20:14:38.408Z,30.60
2023-03-23T20:17:09.924Z,26.97
2023-03-23T20:19:38.631Z,29.23
2023-03-23T20:22:07.374Z,28.13
2023-03-23T20:24:38.019Z,28.30
2023-03-23T20:27:06.749Z,27.97
2023-03-23T20:29:36.892Z,26.87
2023-03-23T20:32:05.455Z,32.40
2023-03-23T20:34:34.146Z,27.67
2023-03-23T20:37:02.995Z,21.27
2023-03-23T20:39:32.574Z,16.13
2023-03-23T20:42:03.515Z,20.10
2023-03-23T20:44:36.189Z,17.63
2023-03-23T20:47:06.834Z,15.63
2023-03-23T20:49:35.338Z,17.57
2023-03-23T20:52:03.721Z,18.73
2023-03-23T20:54:32.266Z,17.00
2023-03-23T20:57:01.302Z,17.40
2023-03-23T20:59:29.732Z,17.33
2023-03-23T21:01:58.203Z,17.50
2023-03-23T21:04:30.328Z,18.80
2023-03-23T21:07:00.801Z,20.40
2023-03-23T21:09:29.384Z,18.07
2023-03-23T21:11:59.248Z,20.67
2023-03-23T21:14:27.739Z,19.57
2023-03-23T21:16:57.063Z,17.53
2023-03-23T21:19:30.460Z,18.30
2023-03-23T21:21:59.100Z,22.37
2023-03-23T21:24:28.684Z,19.07
2023-03-23T21:26:58.458Z,19.63
2023-03-23T21:29:27.640Z,18.70
2023-03-23T21:34:29.926Z,17.07
2023-03-23T21:36:58.433Z,14.97
2023-03-23T21:39:27.187Z,15.17
2023-03-23T21:41:55.673Z,17.40
2023-03-23T21:44:24.387Z,16.53
2023-03-23T21:46:54.750Z,15.50
2023-03-23T21:49:23.450Z,15.93
2023-03-23T21:51:53.225Z,14.47
2023-03-23T21:54:21.741Z,11.93
2023-03-23T21:56:53.368Z,13.20
2023-03-23T21:59:23.076Z,13.47
2023-03-23T22:01:52.191Z,12.03
2023-03-23T22:04:21.192Z,13.73
2023-03-23T22:06:49.736Z,11.50
2023-03-23T22:09:19.756Z,12.53
2023-03-23T22:11:48.276Z,15.80
2023-03-23T22:14:16.822Z,10.20
2023-03-23T22:16:45.291Z,9.57
2023-03-23T22:19:13.910Z,9.90
2023-03-23T22:21:42.597Z,9.73
2023-03-23T22:24:11.340Z,10.40
2023-03-23T22:26:41.472Z,8.60
2023-03-23T22:29:11.350Z,11.27
2023-03-23T22:31:40.564Z,8.10
2023-03-23T22:34:09.092Z,7.83
2023-03-23T22:36:38.880Z,10.00
2023-03-23T22:39:07.397Z,9.50
2023-03-23T22:41:38.532Z,9.47
2023-03-23T22:44:12.752Z,8.97
2023-03-23T22:46:41.403Z,8.13
2023-03-23T22:49:10.235Z,7.57
2023-03-23T22:51:38.790Z,10.93
2023-03-23T22:54:07.449Z,9.10
2023-03-23T22:56:37.475Z,7.53
2023-03-23T22:59:07.541Z,8.10
2023-03-23T23:01:37.459Z,6.80
2023-03-23T23:06:48.767Z,7.13
2023-03-23T23:09:17.255Z,8.07
2023-03-23T23:11:45.727Z,5.77
2023-03-23T23:14:15.646Z,5.13
2023-03-23T23:16:44.747Z,6.03
2023-03-23T23:19:13.442Z,6.43
2023-03-23T23:21:42.386Z,6.43
2023-03-23T23:24:10.869Z,6.47
2023-03-23T23:26:39.332Z,6.70
2023-03-23T23:29:08.072Z,6.23
2023-03-23T23:31:38.758Z,7.03
2023-03-23T23:34:07.436Z,7.30
2023-03-23T23:36:36.220Z,7.73
2023-03-23T23:39:06.102Z,5.90
2023-03-23T23:41:34.830Z,7.40
2023-03-23T23:44:03.348Z,6.23
2023-03-23T23:46:32.149Z,9.80
2023-03-23T23:49:02.395Z,7.10
2023-03-23T23:51:33.682Z,8.57
2023-03-23T23:54:02.688Z,5.20
2023-03-23T23:56:31.955Z,7.17
2023-03-23T23:59:00.497Z,6.87
